SAWU/RZA METAR and TAF weather

Enter ICAO airport designator
Station Type Date Time Source
SAWU METAR 2019/07/12 23:23 UTC NOAA

SAWU 122323Z 05010KT 0800NW 0300NE BCFG BKN002 OVC050 02/02 Q1010


Station Type Date Time Source
SAWU Decoded METAR 2019/07/12 23:23 UTC NOAA

Santa Cruz Aerodrome, Argentina (SAWU) 50-01S 068-34W 111M
Jul 12, 2019 - 07:23 PM EDT / 2019.07.12 2323 UTC
Wind: from the NE (050 degrees) at 12 MPH (10 KT):0
Visibility: less than 1 mile:0
Sky conditions: overcast
Weather: patches of fog
Temperature: 35 F (2 C)
Windchill: 26 F (-3 C):1
Dew Point: 35 F (2 C)
Relative Humidity: 100%
Pressure (altimeter): 29.83 in. Hg (1010 hPa)
ob: SAWU 122323Z 05010KT 0800NW 0300NE BCFG BKN002 OVC050 02/02 Q1010
cycle: 23

Station Type Date Time Source
SAWU TAF UTC NOAA

Error!

Example: see airport list